createdAt,value
2022-08-14T00:02:31.459Z,100724.59
2022-08-14T00:05:00.352Z,100715.56
2022-08-14T00:07:30.909Z,100710.88
2022-08-14T00:10:49.378Z,100705.13
2022-08-14T00:12:57.960Z,100715.78
2022-08-14T00:15:37.364Z,100713.56
2022-08-14T00:18:07.430Z,100700.59
2022-08-14T00:20:43.370Z,100709.03
2022-08-14T00:23:16.383Z,100711.47
2022-08-14T00:25:53.878Z,100704.53
2022-08-14T00:28:36.750Z,100703.00
2022-08-14T00:31:14.514Z,100697.97
2022-08-14T00:33:52.084Z,100704.53
2022-08-14T00:36:35.276Z,100696.28
2022-08-14T00:39:14.111Z,100695.91
2022-08-14T00:41:43.525Z,100693.28
2022-08-14T00:44:13.438Z,100697.81
2022-08-14T00:46:45.577Z,100695.50
2022-08-14T00:49:15.070Z,100694.28
2022-08-14T00:51:45.765Z,100690.22
2022-08-14T00:54:22.050Z,100699.44
2022-08-14T00:56:55.578Z,100688.72
2022-08-14T00:59:28.776Z,100693.25
2022-08-14T01:02:02.896Z,100683.31
2022-08-14T01:04:37.822Z,100686.81
2022-08-14T01:07:22.880Z,100681.69
2022-08-14T01:09:54.471Z,100678.53
2022-08-14T01:12:27.320Z,100687.88
2022-08-14T01:15:03.180Z,100676.69
2022-08-14T01:17:52.128Z,100679.72
2022-08-14T01:20:41.015Z,100672.34
2022-08-14T01:23:16.408Z,100668.44
2022-08-14T01:25:52.204Z,100667.81
2022-08-14T01:28:34.241Z,100668.69
2022-08-14T01:31:14.586Z,100666.38
2022-08-14T01:35:16.054Z,100667.06
2022-08-14T01:36:39.213Z,100656.41
2022-08-14T01:39:15.187Z,100649.34
2022-08-14T01:41:46.837Z,100653.22
2022-08-14T01:44:32.881Z,100643.50
2022-08-14T01:47:21.501Z,100644.16
2022-08-14T01:49:59.416Z,100646.16
2022-08-14T01:52:34.639Z,100640.81
2022-08-14T01:55:20.126Z,100636.63
2022-08-14T01:58:01.854Z,100645.31
2022-08-14T02:00:39.335Z,100643.97
2022-08-14T02:03:09.489Z,100628.09
2022-08-14T02:05:39.036Z,100624.56
2022-08-14T02:08:10.365Z,100623.91
2022-08-14T02:10:46.099Z,100620.06
2022-08-14T02:13:21.121Z,100619.22
2022-08-14T02:15:51.629Z,100621.44
2022-08-14T02:18:21.893Z,100617.81
2022-08-14T02:20:53.381Z,100613.09
2022-08-14T02:23:31.941Z,100609.03
2022-08-14T02:26:24.063Z,100601.78
2022-08-14T02:29:00.484Z,100601.13
2022-08-14T02:31:42.118Z,100609.88
2022-08-14T02:34:22.474Z,100610.22
2022-08-14T02:37:05.227Z,100606.03
2022-08-14T02:39:37.624Z,100603.34
2022-08-14T02:42:13.265Z,100599.34
2022-08-14T02:44:49.057Z,100596.66
2022-08-14T02:47:21.350Z,100600.19
2022-08-14T02:49:56.736Z,100591.13
2022-08-14T02:52:56.596Z,100596.13
2022-08-14T02:55:15.538Z,100588.97
2022-08-14T02:57:58.185Z,100588.72
2022-08-14T03:00:39.889Z,100594.81
2022-08-14T03:03:10.184Z,100590.81
2022-08-14T03:05:41.207Z,100584.78
2022-08-14T03:08:15.949Z,100579.31
2022-08-14T03:10:50.095Z,100585.38
2022-08-14T03:13:22.056Z,100578.31
2022-08-14T03:15:55.858Z,100578.84
2022-08-14T03:18:31.545Z,100577.91
2022-08-14T03:21:03.960Z,100578.41
2022-08-14T03:23:36.483Z,100580.03
2022-08-14T03:26:12.583Z,100574.28
2022-08-14T03:28:51.371Z,100574.59
2022-08-14T03:31:25.906Z,100573.94
2022-08-14T03:33:56.177Z,100576.69
2022-08-14T03:37:51.891Z,100561.31
2022-08-14T03:39:24.231Z,100559.34
2022-08-14T03:41:56.222Z,100558.69
2022-08-14T03:45:30.729Z,100560.34
2022-08-14T03:47:20.401Z,100556.34
2022-08-14T03:49:54.837Z,100550.81
2022-08-14T03:52:40.557Z,100550.66
2022-08-14T03:55:16.641Z,100550.66
2022-08-14T03:57:48.629Z,100539.28
2022-08-14T04:00:44.450Z,100540.63
2022-08-14T04:03:23.536Z,100533.94
2022-08-14T04:05:55.337Z,100523.03
2022-08-14T04:08:30.632Z,100524.91
2022-08-14T04:11:10.351Z,100519.53
2022-08-14T04:13:42.069Z,100526.59
2022-08-14T04:16:15.411Z,100526.28
2022-08-14T04:18:47.295Z,100521.31
2022-08-14T04:21:24.792Z,100528.50
2022-08-14T04:23:57.226Z,100519.16
2022-08-14T04:26:42.737Z,100516.63
2022-08-14T04:29:14.939Z,100512.66
2022-08-14T04:33:01.834Z,100509.47
2022-08-14T04:34:36.665Z,100506.59
2022-08-14T04:37:26.743Z,100507.25
2022-08-14T04:40:15.240Z,100496.75
2022-08-14T04:43:01.794Z,100500.53
2022-08-14T04:45:38.977Z,100496.75
2022-08-14T04:48:38.934Z,100500.44
2022-08-14T04:51:07.653Z,100498.94
2022-08-14T04:53:43.114Z,100495.31
2022-08-14T04:56:33.869Z,100497.31
2022-08-14T04:59:10.452Z,100493.00
2022-08-14T05:01:48.677Z,100504.72
2022-08-14T05:04:25.736Z,100499.38
2022-08-14T05:06:55.576Z,100499.75
2022-08-14T05:09:28.976Z,100502.06
2022-08-14T05:12:54.929Z,100498.03
2022-08-14T05:14:54.672Z,100494.03
2022-08-14T05:17:32.121Z,100492.03
2022-08-14T05:21:54.402Z,100494.88
2022-08-14T05:23:03.830Z,100492.69
2022-08-14T05:25:38.293Z,100492.84
2022-08-14T05:28:14.257Z,100488.00
2022-08-14T05:30:48.056Z,100489.97
2022-08-14T05:33:18.917Z,100491.53
2022-08-14T05:35:51.332Z,100500.41
2022-08-14T05:38:31.678Z,100499.06
2022-08-14T05:41:02.992Z,100498.41
2022-08-14T05:43:44.261Z,100500.59
2022-08-14T05:46:23.167Z,100491.03
2022-08-14T05:48:53.397Z,100494.19
2022-08-14T05:51:25.428Z,100493.28
2022-08-14T05:54:00.300Z,100496.47
2022-08-14T05:56:39.903Z,100495.75
2022-08-14T05:59:12.623Z,100489.22
2022-08-14T06:01:48.288Z,100488.00
2022-08-14T06:04:20.342Z,100494.56
2022-08-14T06:06:51.701Z,100493.84
2022-08-14T06:09:26.236Z,100493.13
2022-08-14T06:11:56.965Z,100501.28
2022-08-14T06:14:26.610Z,100498.00
2022-08-14T06:16:57.114Z,100483.56
2022-08-14T06:19:26.649Z,100487.94
2022-08-14T06:21:58.458Z,100488.91
2022-08-14T06:24:30.682Z,100489.59
2022-08-14T06:27:10.115Z,100480.47
2022-08-14T06:29:39.680Z,100477.75
2022-08-14T06:32:36.862Z,100482.19
2022-08-14T06:35:02.441Z,100473.88
2022-08-14T06:37:44.328Z,100474.22
2022-08-14T06:40:26.091Z,100477.19
2022-08-14T06:43:00.422Z,100479.34
2022-08-14T06:45:32.542Z,100479.06
2022-08-14T06:48:01.737Z,100484.16
2022-08-14T06:50:33.572Z,100486.81
2022-08-14T06:53:03.936Z,100484.03
2022-08-14T06:55:37.108Z,100480.38
2022-08-14T06:58:28.664Z,100481.38
2022-08-14T07:01:15.151Z,100477.69
2022-08-14T07:04:01.691Z,100483.06
2022-08-14T07:06:45.621Z,100476.47
2022-08-14T07:09:23.149Z,100473.38
2022-08-14T07:11:52.223Z,100468.19
2022-08-14T07:14:21.004Z,100468.91
2022-08-14T07:16:49.481Z,100465.31
2022-08-14T07:19:20.965Z,100463.53
2022-08-14T07:21:50.336Z,100466.59
2022-08-14T07:24:21.797Z,100466.31
2022-08-14T07:26:55.019Z,100457.72
2022-08-14T07:29:26.257Z,100459.75
2022-08-14T07:31:57.517Z,100459.28
2022-08-14T07:34:40.939Z,100462.34
2022-08-14T07:37:10.857Z,100460.38
2022-08-14T07:39:43.953Z,100456.81
2022-08-14T07:42:12.616Z,100459.34
2022-08-14T07:44:45.824Z,100456.50
2022-08-14T07:47:16.615Z,100450.41
2022-08-14T07:49:57.262Z,100452.13
2022-08-14T07:52:30.942Z,100448.81
2022-08-14T07:55:03.088Z,100453.81
2022-08-14T07:57:38.687Z,100440.13
2022-08-14T08:00:29.962Z,100450.56
2022-08-14T08:03:01.933Z,100447.78
2022-08-14T08:05:35.398Z,100449.34
2022-08-14T08:08:26.981Z,100450.09
2022-08-14T08:11:03.609Z,100446.50
2022-08-14T08:13:49.125Z,100446.38
2022-08-14T08:16:25.174Z,100446.31
2022-08-14T08:19:14.030Z,100440.06
2022-08-14T08:21:47.582Z,100434.34
2022-08-14T08:24:19.838Z,100436.59
2022-08-14T08:26:51.667Z,100429.47
2022-08-14T08:29:28.277Z,100427.34
2022-08-14T08:32:01.741Z,100426.19
2022-08-14T08:34:46.709Z,100422.69
2022-08-14T08:37:16.473Z,100421.38
2022-08-14T08:40:02.715Z,100406.34
2022-08-14T08:42:38.843Z,100407.44
2022-08-14T08:45:12.128Z,100410.06
2022-08-14T08:47:41.992Z,100408.88
2022-08-14T08:53:02.821Z,100409.47
2022-08-14T08:55:38.603Z,100411.34
2022-08-14T08:58:16.322Z,100411.84
2022-08-14T09:00:54.236Z,100408.38
2022-08-14T09:03:27.278Z,100412.38
2022-08-14T09:05:59.048Z,100405.38
2022-08-14T09:08:32.969Z,100410.34
2022-08-14T09:11:19.406Z,100406.97
2022-08-14T09:13:54.424Z,100407.63
2022-08-14T09:16:25.560Z,100405.94
2022-08-14T09:18:55.454Z,100404.06
2022-08-14T09:21:31.064Z,100406.56
2022-08-14T09:24:29.442Z,100406.19
2022-08-14T09:26:53.296Z,100401.38
2022-08-14T09:29:23.843Z,100393.50
2022-08-14T09:31:58.049Z,100397.28
2022-08-14T09:34:58.492Z,100386.13
2022-08-14T09:37:46.917Z,100392.94
2022-08-14T09:40:29.516Z,100391.69
2022-08-14T09:43:10.734Z,100386.28
2022-08-14T09:45:53.033Z,100385.03
2022-08-14T09:48:30.009Z,100385.84
2022-08-14T09:54:18.203Z,100392.72
2022-08-14T09:56:57.198Z,100389.63
2022-08-14T09:59:40.769Z,100388.56
2022-08-14T10:02:28.488Z,100388.56
2022-08-14T10:05:06.653Z,100391.03
2022-08-14T10:07:41.235Z,100375.88
2022-08-14T10:10:34.639Z,100382.38
2022-08-14T10:13:06.829Z,100376.88
2022-08-14T10:15:47.325Z,100362.44
2022-08-14T10:18:21.780Z,100369.56
2022-08-14T10:20:57.994Z,100364.03
2022-08-14T10:23:30.063Z,100362.28
2022-08-14T10:26:07.654Z,100345.59
2022-08-14T10:29:14.031Z,100341.50
2022-08-14T10:31:44.744Z,100337.38
2022-08-14T10:34:29.189Z,100329.34
2022-08-14T10:37:14.715Z,100339.22
2022-08-14T10:40:02.193Z,100322.03
2022-08-14T10:42:38.995Z,100324.00
2022-08-14T10:45:21.621Z,100310.81
2022-08-14T10:48:08.868Z,100309.63
2022-08-14T10:50:51.600Z,100296.13
2022-08-14T10:53:33.164Z,100296.47
2022-08-14T10:56:21.550Z,100296.97
2022-08-14T10:59:03.416Z,100288.75
2022-08-14T11:01:41.142Z,100274.94
2022-08-14T11:04:30.564Z,100278.22
2022-08-14T11:07:02.651Z,100266.47
2022-08-14T11:09:34.378Z,100264.50
2022-08-14T11:12:34.796Z,100251.00
2022-08-14T11:15:02.235Z,100244.34
2022-08-14T11:17:33.093Z,100238.63
2022-08-14T11:20:03.644Z,100232.09
2022-08-14T11:23:03.081Z,100220.03
2022-08-14T11:25:43.949Z,100225.31
2022-08-14T11:28:19.005Z,100216.09
2022-08-14T11:30:54.124Z,100210.66
2022-08-14T11:33:43.221Z,100213.91
2022-08-14T11:36:17.864Z,100219.22
2022-08-14T11:38:51.536Z,100215.34
2022-08-14T11:41:22.969Z,100216.75
2022-08-14T11:43:56.239Z,100209.91
2022-08-14T11:46:30.259Z,100206.72
2022-08-14T11:49:09.555Z,100197.59
2022-08-14T11:51:52.971Z,100193.91
2022-08-14T11:54:34.004Z,100194.78
2022-08-14T11:57:05.959Z,100190.34
2022-08-14T11:59:34.835Z,100183.28
2022-08-14T12:03:01.298Z,100201.06
2022-08-14T12:05:13.334Z,100200.91
2022-08-14T12:07:50.546Z,100197.94
2022-08-14T12:10:37.138Z,100201.31
2022-08-14T12:13:17.520Z,100197.69
2022-08-14T12:15:52.616Z,100195.78
2022-08-14T12:18:32.800Z,100196.25
2022-08-14T12:21:19.003Z,100194.03
2022-08-14T12:23:50.379Z,100192.16
2022-08-14T12:26:39.095Z,100184.13
2022-08-14T12:29:10.784Z,100179.22
2022-08-14T12:32:00.413Z,100184.38
2022-08-14T12:34:37.278Z,100174.53
2022-08-14T12:37:10.353Z,100178.53
2022-08-14T12:39:45.883Z,100177.41
2022-08-14T12:42:34.147Z,100175.34
2022-08-14T12:45:04.276Z,100173.56
2022-08-14T12:47:33.455Z,100176.59
2022-08-14T12:50:03.197Z,100166.13
2022-08-14T12:52:45.369Z,100174.16
2022-08-14T12:55:44.125Z,100161.41
2022-08-14T12:59:12.716Z,100166.81
2022-08-14T13:01:59.433Z,100163.34
2022-08-14T13:04:35.420Z,100165.97
2022-08-14T13:07:09.007Z,100160.31
2022-08-14T13:09:38.143Z,100165.34
2022-08-14T13:12:32.350Z,100165.44
2022-08-14T13:15:08.949Z,100162.00
2022-08-14T13:17:43.440Z,100163.72
2022-08-14T13:20:24.709Z,100163.25
2022-08-14T13:22:56.726Z,100159.69
2022-08-14T13:25:27.495Z,100170.34
2022-08-14T13:28:00.394Z,100167.66
2022-08-14T13:30:30.785Z,100166.81
2022-08-14T13:33:07.024Z,100179.13
2022-08-14T13:35:47.805Z,100176.38
2022-08-14T13:38:22.228Z,100171.38
2022-08-14T13:40:56.167Z,100171.03
2022-08-14T13:43:36.478Z,100171.75
2022-08-14T13:46:07.628Z,100169.00
2022-08-14T13:48:43.942Z,100167.28
2022-08-14T13:51:18.214Z,100167.91
2022-08-14T13:54:08.373Z,100166.09
2022-08-14T13:56:42.359Z,100164.31
2022-08-14T13:59:12.498Z,100163.50
2022-08-14T14:01:52.133Z,100156.69
2022-08-14T14:04:31.192Z,100162.88
2022-08-14T14:07:04.410Z,100166.78
2022-08-14T14:09:37.682Z,100166.47
2022-08-14T14:12:37.555Z,100167.16
2022-08-14T14:15:11.202Z,100163.41
2022-08-14T14:17:43.900Z,100156.72
2022-08-14T14:20:15.299Z,100157.41
2022-08-14T14:23:09.502Z,100160.19
2022-08-14T14:25:51.253Z,100155.09
2022-08-14T14:28:32.266Z,100146.09
2022-08-14T14:31:05.984Z,100160.78
2022-08-14T14:33:47.849Z,100163.50
2022-08-14T14:36:21.737Z,100160.00
2022-08-14T14:38:56.465Z,100146.75
2022-08-14T14:41:37.679Z,100144.97
2022-08-14T14:44:09.089Z,100139.94
2022-08-14T14:46:41.633Z,100137.63
2022-08-14T14:49:15.075Z,100144.72
2022-08-14T14:51:51.482Z,100138.56
2022-08-14T14:54:31.267Z,100141.22
2022-08-14T14:57:02.401Z,100134.78
2022-08-14T14:59:33.263Z,100137.53
2022-08-14T15:02:08.175Z,100141.50
2022-08-14T15:04:43.574Z,100137.75
2022-08-14T15:07:13.159Z,100137.38
2022-08-14T15:09:45.255Z,100144.84
2022-08-14T15:12:56.603Z,100140.31
2022-08-14T15:15:08.925Z,100134.59
2022-08-14T15:17:41.997Z,100133.53
2022-08-14T15:20:17.542Z,100128.38
2022-08-14T15:23:12.244Z,100128.81
2022-08-14T15:25:42.033Z,100126.84
2022-08-14T15:28:21.001Z,100125.66
2022-08-14T15:30:57.994Z,100126.63
2022-08-14T15:34:33.986Z,100126.16
2022-08-14T15:36:36.215Z,100125.81
2022-08-14T15:39:06.246Z,100130.16
2022-08-14T15:41:41.839Z,100118.00
2022-08-14T15:44:25.224Z,100122.69
2022-08-14T15:46:55.957Z,100120.78
2022-08-14T15:49:34.517Z,100118.66
2022-08-14T15:52:07.833Z,100117.84
2022-08-14T15:54:38.818Z,100112.91
2022-08-14T15:57:10.858Z,100116.59
2022-08-14T15:59:58.697Z,100117.91
2022-08-14T16:02:28.727Z,100117.91
2022-08-14T16:04:59.644Z,100118.34
2022-08-14T16:07:31.124Z,100116.13
2022-08-14T16:10:27.654Z,100112.34
2022-08-14T16:12:50.671Z,100110.88
2022-08-14T16:15:21.452Z,100106.16
2022-08-14T16:17:56.585Z,100105.94
2022-08-14T16:20:42.153Z,100107.31
2022-08-14T16:23:18.404Z,100111.06
2022-08-14T16:25:52.657Z,100098.63
2022-08-14T16:28:27.846Z,100092.56
2022-08-14T16:30:57.700Z,100092.22
2022-08-14T16:33:27.983Z,100102.38
2022-08-14T16:36:30.572Z,100095.13
2022-08-14T16:39:04.076Z,100081.94
2022-08-14T16:41:32.914Z,100093.16
2022-08-14T16:44:13.585Z,100089.59
2022-08-14T16:46:55.266Z,100095.25
2022-08-14T16:50:03.076Z,100082.91
2022-08-14T16:52:43.408Z,100088.94
2022-08-14T16:55:08.875Z,100077.19
2022-08-14T16:57:50.020Z,100078.16
2022-08-14T17:00:32.678Z,100076.22
2022-08-14T17:03:08.461Z,100072.00
2022-08-14T17:05:43.308Z,100061.22
2022-08-14T17:08:31.812Z,100057.09
2022-08-14T17:11:11.201Z,100061.59
2022-08-14T17:13:58.445Z,100058.03
2022-08-14T17:16:35.936Z,100051.84
2022-08-14T17:19:11.565Z,100054.22
2022-08-14T17:21:51.658Z,100062.56
2022-08-14T17:24:55.922Z,100058.53
2022-08-14T17:27:18.139Z,100058.41
2022-08-14T17:29:56.614Z,100050.63
2022-08-14T17:32:55.949Z,100054.28
2022-08-14T17:35:57.594Z,100047.00
2022-08-14T17:38:38.703Z,100042.56
2022-08-14T17:41:32.686Z,100039.50
2022-08-14T17:44:34.218Z,100040.44
2022-08-14T17:47:28.018Z,100037.56
2022-08-14T17:50:58.878Z,100034.22
2022-08-14T17:52:52.594Z,100032.41
2022-08-14T17:56:01.326Z,100037.06
2022-08-14T17:58:20.746Z,100037.81
2022-08-14T18:00:57.871Z,100037.03
2022-08-14T18:03:46.416Z,100032.41
2022-08-14T18:09:25.930Z,100040.09
2022-08-14T18:14:48.986Z,100040.97
2022-08-14T18:17:25.371Z,100034.72
2022-08-14T18:19:59.595Z,100020.63
2022-08-14T18:22:39.444Z,100028.53
2022-08-14T18:25:18.007Z,100019.69
2022-08-14T18:27:51.504Z,100021.41
2022-08-14T18:30:33.105Z,100024.09
2022-08-14T18:33:20.996Z,100025.47
2022-08-14T18:35:59.753Z,100018.84
2022-08-14T18:38:55.131Z,100026.38
2022-08-14T18:41:37.050Z,100026.03
2022-08-14T18:44:10.857Z,100021.47
2022-08-14T18:47:15.972Z,100027.22
2022-08-14T18:50:26.134Z,100029.47
2022-08-14T18:53:07.359Z,100028.44
2022-08-14T18:55:54.104Z,100033.03
2022-08-14T18:58:31.692Z,100029.28
2022-08-14T19:01:06.484Z,100028.06
2022-08-14T19:03:57.763Z,100019.22
2022-08-14T19:06:56.336Z,100016.28
2022-08-14T19:09:58.453Z,100021.25
2022-08-14T19:13:12.003Z,100029.97
2022-08-14T19:15:44.564Z,100025.38
2022-08-14T19:18:26.380Z,100024.34
2022-08-14T19:20:59.938Z,100019.59
2022-08-14T19:23:42.413Z,100016.91
2022-08-14T19:26:34.211Z,100011.94
2022-08-14T19:29:25.854Z,100011.94
2022-08-14T19:31:58.973Z,100013.59
2022-08-14T19:34:52.535Z,100009.91
2022-08-14T19:37:47.922Z,100011.13
2022-08-14T19:40:38.072Z,100013.41
2022-08-14T19:43:09.507Z,100007.41
2022-08-14T19:45:40.699Z,100007.59
2022-08-14T19:48:15.853Z,100019.41
2022-08-14T19:50:47.101Z,100027.03
2022-08-14T19:53:19.025Z,100021.03
2022-08-14T19:56:02.609Z,100021.44
2022-08-14T19:58:54.970Z,100013.81
2022-08-14T20:01:38.120Z,100021.84
2022-08-14T20:04:22.876Z,100023.72
2022-08-14T20:07:08.942Z,100022.47
2022-08-14T20:11:06.337Z,100022.09
2022-08-14T20:13:07.973Z,100033.69
2022-08-14T20:15:47.143Z,100039.25
2022-08-14T20:18:49.126Z,100033.88
2022-08-14T20:21:18.718Z,100023.91
2022-08-14T20:23:49.960Z,100023.91
2022-08-14T20:26:30.534Z,100017.94
2022-08-14T20:29:07.121Z,100027.25
2022-08-14T20:31:38.375Z,100017.31
2022-08-14T20:34:24.942Z,100024.78
2022-08-14T20:37:09.576Z,100024.78
2022-08-14T20:39:44.987Z,100030.34
2022-08-14T20:42:43.890Z,100030.53
2022-08-14T20:45:24.817Z,100026.41
2022-08-14T20:48:07.132Z,100023.53
2022-08-14T20:50:45.167Z,100022.50
2022-08-14T20:53:33.711Z,100023.31
2022-08-14T20:56:28.918Z,100029.09
2022-08-14T20:58:54.274Z,100024.56
2022-08-14T21:01:36.003Z,100027.25
2022-08-14T21:04:22.737Z,100032.19
2022-08-14T21:07:25.117Z,100031.38
2022-08-14T21:10:05.608Z,100017.50
2022-08-14T21:12:35.908Z,100014.44
2022-08-14T21:15:11.113Z,100009.06
2022-08-14T21:17:46.106Z,100002.84
2022-08-14T21:20:26.084Z,100015.69
2022-08-14T21:23:00.552Z,100026.81
2022-08-14T21:25:34.653Z,100021.03
2022-08-14T21:28:07.316Z,100016.06
2022-08-14T21:30:51.115Z,100005.75
2022-08-14T21:33:22.811Z,100008.66
2022-08-14T21:35:55.732Z,99999.97
2022-08-14T21:38:34.252Z,100018.91
2022-08-14T21:41:42.325Z,100025.94
2022-08-14T21:44:17.098Z,100033.28
2022-08-14T21:46:49.845Z,100032.91
2022-08-14T21:49:24.566Z,100025.50
2022-08-14T21:52:05.230Z,100021.78
2022-08-14T21:54:53.474Z,100019.09
2022-08-14T21:57:56.499Z,100024.28
2022-08-14T22:00:35.415Z,100033.16
2022-08-14T22:03:09.047Z,100056.03
2022-08-14T22:05:45.178Z,100062.44
2022-08-14T22:08:26.790Z,100061.41
2022-08-14T22:10:59.216Z,100060.78
2022-08-14T22:13:32.568Z,100053.13
2022-08-14T22:16:59.969Z,100058.34
2022-08-14T22:19:03.390Z,100078.41
2022-08-14T22:21:34.274Z,100071.81
2022-08-14T22:24:10.546Z,100066.00
2022-08-14T22:26:44.889Z,100076.31
2022-08-14T22:29:16.866Z,100070.50
2022-08-14T22:31:48.861Z,100063.09
2022-08-14T22:34:19.422Z,100073.63
2022-08-14T22:36:49.699Z,100062.22
2022-08-14T22:40:17.678Z,100068.84
2022-08-14T22:42:24.206Z,100079.81
2022-08-14T22:44:56.803Z,100082.50
2022-08-14T22:47:40.483Z,100086.56
2022-08-14T22:50:30.507Z,100084.47
2022-08-14T22:53:05.682Z,100079.66
2022-08-14T22:55:42.006Z,100082.91
2022-08-14T22:58:30.370Z,100084.09
2022-08-14T23:01:11.998Z,100082.69
2022-08-14T23:03:49.754Z,100083.28
2022-08-14T23:07:02.933Z,100087.09
2022-08-14T23:09:56.989Z,100088.50
2022-08-14T23:12:35.033Z,100092.75
2022-08-14T23:15:07.333Z,100079.31
2022-08-14T23:17:40.879Z,100086.47
2022-08-14T23:20:19.054Z,100080.41
2022-08-14T23:22:51.281Z,100080.50
2022-08-14T23:25:58.507Z,100081.56
2022-08-14T23:28:33.549Z,100077.63
2022-08-14T23:31:34.715Z,100071.84
2022-08-14T23:34:20.296Z,100081.41
2022-08-14T23:36:59.550Z,100088.66
2022-08-14T23:39:39.266Z,100086.22
2022-08-14T23:42:18.046Z,100103.81
2022-08-14T23:44:59.123Z,100087.50
2022-08-14T23:47:30.939Z,100106.13
2022-08-14T23:50:38.565Z,100102.63
2022-08-14T23:53:28.577Z,100107.72
2022-08-14T23:56:10.051Z,100115.28
2022-08-14T23:58:49.115Z,100114.84
